Time;durP1;ratioP1;P1;durP2;ratioP2;P2;SDS_P1;SDS_P2;PMS_P1;PMS_P2;Temp;Humidity;BMP_temperature;BMP_pressure;BME280_temperature;BME280_humidity;BME280_pressure;Samples;Min_cycle;Max_cycle;Signal;HPM_P1;HPM_P2
2022/11/18 00:01:13;;;;;;;58.00;33.70;;;;;;;-0.29;73.57;99705.66;4960641;28;20500;-65
2022/11/18 00:03:41;;;;;;;60.15;34.00;;;;;;;-0.57;74.16;99701.59;4961205;28;20043;-65
2022/11/18 00:06:14;;;;;;;58.70;33.85;;;;;;;-0.56;74.36;99693.59;4960682;28;20449;-65
2022/11/18 00:08:40;;;;;;;61.05;35.78;;;;;;;-0.31;74.03;99694.38;4960017;28;20143;-65
2022/11/18 00:11:09;;;;;;;60.78;35.08;;;;;;;-0.39;73.97;99696.78;4959937;28;20054;-65
2022/11/18 00:16:22;;;;;;;60.88;35.22;;;;;;;-0.58;74.67;99707.81;4960274;28;20480;-68
2022/11/18 00:18:49;;;;;;;61.90;33.97;;;;;;;-0.55;74.69;99700.53;4960805;28;20047;-64
2022/11/18 00:21:16;;;;;;;65.25;35.45;;;;;;;-0.50;74.27;99689.69;4960433;28;20047;-63
2022/11/18 00:23:42;;;;;;;59.90;35.45;;;;;;;-0.70;74.62;99691.16;4960457;28;20059;-66
2022/11/18 00:26:12;;;;;;;60.67;34.78;;;;;;;-0.83;75.09;99693.00;4960104;28;20043;-66
2022/11/18 00:28:39;;;;;;;64.00;36.42;;;;;;;-0.88;75.25;99695.97;4960043;28;20051;-64
2022/11/18 00:31:11;;;;;;;60.53;35.67;;;;;;;-0.66;74.50;99693.44;4959134;28;20128;-65
2022/11/18 00:33:38;;;;;;;63.53;34.90;;;;;;;-0.85;75.39;99708.06;4959645;28;20062;-65
2022/11/18 00:36:08;;;;;;;63.75;34.45;;;;;;;-0.80;74.91;99698.03;4958955;28;20130;-63
2022/11/18 00:38:34;;;;;;;63.38;35.38;;;;;;;-0.79;74.85;99695.28;4959105;28;20043;-64
2022/11/18 00:41:09;;;;;;;70.55;36.42;;;;;;;-0.72;74.65;99696.50;4956567;28;20062;-65
2022/11/18 00:43:36;;;;;;;67.07;36.55;;;;;;;-0.82;75.14;99694.66;4958430;28;20492;-63
2022/11/18 00:46:04;;;;;;;61.47;36.45;;;;;;;-0.91;74.93;99697.03;4957524;28;20047;-64
2022/11/18 00:48:30;;;;;;;61.03;35.22;;;;;;;-0.85;74.96;99700.16;4957391;28;20424;-63
2022/11/18 00:51:05;;;;;;;65.13;34.65;;;;;;;-0.87;74.70;99699.44;4955117;28;20054;-66
2022/11/18 00:53:31;;;;;;;65.30;36.88;;;;;;;-0.67;74.14;99699.66;4958455;28;20051;-65
2022/11/18 00:55:58;;;;;;;67.15;37.63;;;;;;;-0.61;73.97;99690.44;4967441;28;20131;-63
2022/11/18 00:58:24;;;;;;;64.68;36.25;;;;;;;-0.59;73.34;99696.47;4977821;28;20042;-65
2022/11/18 01:00:51;;;;;;;61.55;34.90;;;;;;;-0.72;73.92;99687.78;4976164;28;20054;-66
2022/11/18 01:03:19;;;;;;;64.18;34.60;;;;;;;-0.76;73.52;99692.44;4977236;28;20043;-63
2022/11/18 01:05:46;;;;;;;55.90;33.22;;;;;;;-0.62;73.56;99693.22;4976778;28;20049;-64
2022/11/18 01:08:13;;;;;;;59.72;35.20;;;;;;;-0.79;73.07;99692.66;4972660;28;20053;-65
2022/11/18 01:10:40;;;;;;;54.63;32.75;;;;;;;-0.80;73.09;99713.84;4976042;28;20046;-64
2022/11/18 01:13:21;;;;;;;55.85;33.95;;;;;;;-0.54;72.54;99694.31;4975973;28;20050;-64
2022/11/18 01:15:53;;;;;;;58.72;33.13;;;;;;;-0.78;72.61;99709.28;4976235;28;20046;-63
2022/11/18 01:18:25;;;;;;;52.67;31.38;;;;;;;-0.79;72.70;99707.63;4977191;28;20127;-65
2022/11/18 01:20:52;;;;;;;59.15;33.80;;;;;;;-0.75;71.73;99715.16;4974781;28;20065;-64
2022/11/18 01:23:19;;;;;;;61.15;32.17;;;;;;;-0.85;72.23;99708.06;4977064;28;20047;-63
2022/11/18 01:25:48;;;;;;;51.40;29.58;;;;;;;-0.93;72.12;99716.53;4976477;28;20039;-65
2022/11/18 01:28:16;;;;;;;53.30;31.60;;;;;;;-0.72;71.50;99720.22;4976894;28;20043;-65
2022/11/18 01:30:49;;;;;;;50.38;30.33;;;;;;;-0.85;71.75;99711.53;4974983;28;20054;-65
2022/11/18 01:33:15;;;;;;;55.13;31.35;;;;;;;-0.86;71.71;99706.38;4980489;28;20046;-65
2022/11/18 01:35:43;;;;;;;54.70;31.27;;;;;;;-1.09;72.12;99703.63;4977680;28;20050;-65
2022/11/18 01:38:12;;;;;;;48.63;29.98;;;;;;;-0.93;71.59;99705.97;4975416;28;20046;-65
2022/11/18 01:40:39;;;;;;;49.80;30.02;;;;;;;-0.91;71.43;99719.91;4975700;28;20051;-65
2022/11/18 01:43:12;;;;;;;47.13;29.85;;;;;;;-0.80;70.90;99719.94;4976219;28;20050;-65
2022/11/18 01:45:41;;;;;;;51.13;30.27;;;;;;;-0.74;70.48;99718.66;4975603;28;20062;-65
2022/11/18 01:48:19;;;;;;;48.42;30.27;;;;;;;-1.20;70.43;99720.16;4976236;28;20411;-63
2022/11/18 01:50:53;;;;;;;44.83;28.13;;;;;;;-1.01;70.78;99718.88;4976230;28;20134;-65
2022/11/18 01:53:27;;;;;;;41.72;28.55;;;;;;;-0.96;69.96;99724.63;4976548;28;20051;-65
2022/11/18 01:55:56;;;;;;;41.92;25.80;;;;;;;-1.03;70.00;99716.34;4965974;28;20051;-65
2022/11/18 01:58:41;;;;;;;41.88;26.48;;;;;;;-0.87;69.52;99723.16;4957884;28;20047;-65
2022/11/18 02:01:08;;;;;;;46.58;28.02;;;;;;;-1.14;70.00;99716.28;4948216;28;20058;-65
2022/11/18 02:03:35;;;;;;;44.47;27.77;;;;;;;-1.07;69.91;99721.94;4956672;28;20043;-63
2022/11/18 02:09:51;;;;;;;43.72;26.75;;;;;;;-1.30;69.85;99718.31;4953763;28;20062;-63
2022/11/18 02:12:19;;;;;;;41.95;26.17;;;;;;;-1.17;70.13;99717.31;4955790;28;20062;-65
2022/11/18 02:14:46;;;;;;;40.75;27.25;;;;;;;-1.00;69.50;99724.00;4954598;28;20074;-63
2022/11/18 02:17:32;;;;;;;44.75;27.67;;;;;;;-1.19;69.74;99718.41;4955635;28;20444;-64
2022/11/18 02:20:14;;;;;;;47.30;29.10;;;;;;;-1.11;69.65;99725.75;4956036;28;20047;-63
2022/11/18 02:22:59;;;;;;;44.50;28.42;;;;;;;-0.92;69.53;99729.59;4957234;28;20058;-65
2022/11/18 02:26:03;;;;;;;44.80;27.67;;;;;;;-1.07;69.36;99721.94;4957052;28;20036;-63
2022/11/18 02:28:49;;;;;;;50.15;30.60;;;;;;;-1.16;69.63;99723.44;4956339;28;20051;-65
2022/11/18 02:31:24;;;;;;;54.10;28.27;;;;;;;-1.42;70.91;99734.03;4955923;28;20047;-65
2022/11/18 02:34:02;;;;;;;50.10;27.85;;;;;;;-1.46;71.02;99724.66;4952354;28;20051;-65
2022/11/18 02:36:54;;;;;;;46.22;29.05;;;;;;;-1.39;71.17;99730.34;4960043;28;20039;-64
2022/11/18 02:39:35;;;;;;;48.63;29.52;;;;;;;-1.64;71.57;99731.22;4956555;28;20058;-65
2022/11/18 02:42:06;;;;;;;50.67;28.95;;;;;;;-1.52;71.26;99734.78;4955969;28;20085;-65
2022/11/18 02:44:37;;;;;;;50.20;30.27;;;;;;;-1.25;71.15;99742.53;4961593;28;20427;-65
2022/11/18 02:47:06;;;;;;;51.92;30.13;;;;;;;-1.48;71.54;99738.88;4957722;28;20043;-66
2022/11/18 02:49:42;;;;;;;52.20;30.58;;;;;;;-1.39;70.98;99736.44;4956363;28;20499;-63
2022/11/18 02:52:10;;;;;;;48.67;29.70;;;;;;;-1.32;70.90;99738.66;4957199;28;20054;-63
2022/11/18 02:54:40;;;;;;;48.78;30.38;;;;;;;-1.46;70.81;99729.94;4957077;28;20044;-64
2022/11/18 02:57:08;;;;;;;50.95;31.13;;;;;;;-1.34;70.78;99737.91;4937789;28;20128;-65
2022/11/18 02:59:34;;;;;;;46.85;29.27;;;;;;;-1.35;70.04;99725.69;4937859;28;20055;-65
2022/11/18 03:02:00;;;;;;;50.97;31.05;;;;;;;-1.17;69.86;99729.66;4938521;28;20048;-65
2022/11/18 03:04:28;;;;;;;51.85;30.60;;;;;;;-1.36;70.25;99726.66;4939340;28;20079;-64
2022/11/18 03:07:09;;;;;;;46.55;28.30;;;;;;;-1.51;70.13;99728.56;4937913;28;20058;-64
2022/11/18 03:09:39;;;;;;;42.92;26.95;;;;;;;-1.55;70.22;99720.03;4937603;28;20067;-63
2022/11/18 03:12:23;;;;;;;49.00;29.92;;;;;;;-1.47;70.40;99724.75;4938297;28;20055;-65
2022/11/18 03:15:04;;;;;;;47.45;29.70;;;;;;;-1.54;70.46;99718.25;4936887;28;20055;-63
2022/11/18 03:17:33;;;;;;;59.13;31.15;;;;;;;-1.45;70.15;99718.44;4937091;28;20040;-68
2022/11/18 03:20:09;;;;;;;48.65;30.17;;;;;;;-1.51;70.10;99726.75;4939212;28;20051;-63
2022/11/18 03:22:45;;;;;;;49.75;30.60;;;;;;;-1.39;69.66;99723.28;4947436;28;20047;-65
2022/11/18 03:25:27;;;;;;;50.50;30.35;;;;;;;-1.67;70.41;99731.44;4940716;28;20062;-65
2022/11/18 03:28:13;;;;;;;46.53;28.83;;;;;;;-1.64;70.72;99733.84;4941721;28;20055;-65
2022/11/18 03:30:57;;;;;;;49.53;29.60;;;;;;;-1.55;71.03;99742.88;4942309;28;20048;-65
2022/11/18 03:33:31;;;;;;;49.15;28.80;;;;;;;-1.72;70.74;99741.41;4943446;28;20051;-66
2022/11/18 03:36:02;;;;;;;48.00;30.40;;;;;;;-1.79;70.49;99750.66;4941626;28;20044;-65
2022/11/18 03:38:35;;;;;;;52.60;30.73;;;;;;;-1.65;70.62;99745.28;4942696;28;20052;-66
2022/11/18 03:41:05;;;;;;;50.15;30.48;;;;;;;-1.90;70.48;99746.13;4940993;28;20058;-67
2022/11/18 03:43:38;;;;;;;50.88;31.58;;;;;;;-1.63;70.58;99751.31;4935688;28;20048;-65
2022/11/18 03:46:15;;;;;;;53.47;32.17;;;;;;;-1.61;70.68;99754.69;4942786;28;20043;-63
2022/11/18 03:48:51;;;;;;;52.80;31.00;;;;;;;-1.77;70.55;99746.16;4947794;28;20051;-64
2022/11/18 03:51:25;;;;;;;49.13;30.60;;;;;;;-1.79;70.99;99755.91;4940818;28;20516;-63
2022/11/18 03:53:59;;;;;;;50.28;31.70;;;;;;;-1.75;70.91;99746.88;4940970;28;20420;-64
2022/11/18 03:56:33;;;;;;;53.83;32.35;;;;;;;-1.44;70.21;99762.25;4941148;28;20054;-65
2022/11/18 03:59:09;;;;;;;51.53;31.38;;;;;;;-1.62;70.81;99764.34;4942564;28;20051;-64
2022/11/18 04:01:44;;;;;;;52.72;32.53;;;;;;;-1.53;71.06;99767.28;4942368;28;20162;-64
2022/11/18 04:04:12;;;;;;;51.60;32.58;;;;;;;-1.68;70.62;99766.53;4942523;28;20048;-63
2022/11/18 04:06:45;;;;;;;51.70;30.88;;;;;;;-1.85;70.98;99770.34;4941740;28;20054;-66
2022/11/18 04:09:36;;;;;;;50.47;32.65;;;;;;;-1.81;71.51;99773.59;4941506;28;20411;-64
2022/11/18 04:12:17;;;;;;;52.00;31.08;;;;;;;-1.80;71.55;99764.75;4941722;28;20043;-64
2022/11/18 04:14:46;;;;;;;63.85;34.40;;;;;;;-1.66;70.83;99770.75;4941810;28;20047;-65
2022/11/18 04:17:18;;;;;;;50.40;31.73;;;;;;;-1.66;70.85;99775.19;4940593;28;20055;-63
2022/11/18 04:19:45;;;;;;;51.05;31.50;;;;;;;-1.71;70.43;99778.13;4942642;28;20048;-64
2022/11/18 04:22:11;;;;;;;51.45;31.70;;;;;;;-1.85;70.45;99783.50;4937877;28;20055;-64
2022/11/18 04:24:38;;;;;;;52.10;32.05;;;;;;;-1.95;71.19;99778.00;4941967;28;20520;-66
2022/11/18 04:27:06;;;;;;;53.38;32.15;;;;;;;-2.01;70.58;99773.16;4940688;28;20048;-66
2022/11/18 04:29:33;;;;;;;53.53;31.40;;;;;;;-1.94;70.33;99778.84;4941103;28;20050;-64
2022/11/18 04:32:00;;;;;;;56.88;36.15;;;;;;;-1.76;70.27;99787.28;4942213;28;20048;-64
2022/11/18 04:34:27;;;;;;;50.35;30.88;;;;;;;-1.66;70.13;99798.84;4941320;28;20171;-65
2022/11/18 04:36:53;;;;;;;51.03;31.50;;;;;;;-2.16;71.25;99792.59;4940883;28;20571;-64
2022/11/18 04:39:20;;;;;;;55.13;33.70;;;;;;;-1.92;71.20;99798.00;4941577;28;20480;-64
2022/11/18 04:41:55;;;;;;;55.38;34.15;;;;;;;-1.77;70.98;99801.38;4941804;28;20052;-64
2022/11/18 04:44:28;;;;;;;56.38;33.97;;;;;;;-1.98;71.22;99801.88;4941470;28;20055;-64
2022/11/18 04:46:56;;;;;;;56.72;33.28;;;;;;;-2.07;71.74;99802.47;4938713;28;21569;-65
2022/11/18 04:49:24;;;;;;;55.03;34.83;;;;;;;-1.98;71.86;99807.13;4948993;28;20526;-65
2022/11/18 04:51:51;;;;;;;60.00;35.47;;;;;;;-1.98;71.41;99819.44;4940842;28;20055;-64
2022/11/18 04:54:18;;;;;;;57.08;34.40;;;;;;;-1.95;71.49;99814.81;4940431;28;20047;-64
2022/11/18 04:56:46;;;;;;;56.97;34.17;;;;;;;-1.71;70.68;99822.84;4974794;28;20395;-64
2022/11/18 04:59:18;;;;;;;59.90;35.45;;;;;;;-1.81;71.09;99815.69;4976378;28;20073;-65
2022/11/18 05:01:45;;;;;;;58.95;36.45;;;;;;;-1.79;70.82;99824.28;4979550;28;20050;-64
2022/11/18 05:04:18;;;;;;;61.78;36.20;;;;;;;-1.93;71.22;99817.31;4978821;28;20050;-64
2022/11/18 05:06:45;;;;;;;61.70;36.78;;;;;;;-2.22;71.64;99816.63;4978655;28;20069;-63
2022/11/18 05:09:12;;;;;;;66.18;37.03;;;;;;;-2.18;72.06;99818.09;4976354;28;20070;-65
2022/11/18 05:14:29;;;;;;;64.90;35.35;;;;;;;-1.91;70.96;99818.06;4978385;28;20066;-66
2022/11/18 05:16:58;;;;;;;63.47;37.08;;;;;;;-1.88;70.58;99820.50;4978067;28;20058;-66
2022/11/18 05:19:24;;;;;;;64.65;36.00;;;;;;;-2.11;71.49;99820.22;4977021;28;20051;-65
2022/11/18 05:21:52;;;;;;;70.50;40.72;;;;;;;-1.86;71.14;99823.84;4979038;28;20053;-65
2022/11/18 05:24:18;;;;;;;70.45;39.50;;;;;;;-1.83;71.48;99822.81;4978165;28;20058;-65
2022/11/18 05:26:45;;;;;;;67.47;39.10;;;;;;;-2.02;71.70;99826.69;4977444;28;20043;-65
2022/11/18 05:29:12;;;;;;;72.53;40.35;;;;;;;-1.88;71.59;99831.84;4978202;28;20524;-65
2022/11/18 05:31:38;;;;;;;75.43;41.03;;;;;;;-2.23;72.62;99836.81;4977334;28;20046;-65
2022/11/18 05:34:05;;;;;;;67.95;39.40;;;;;;;-2.33;72.60;99836.56;4978733;28;20046;-63
2022/11/18 05:36:31;;;;;;;71.63;41.25;;;;;;;-2.18;72.34;99833.88;4977996;28;20047;-63
2022/11/18 05:38:58;;;;;;;82.70;42.50;;;;;;;-2.29;72.52;99836.38;4978373;28;20066;-65
2022/11/18 05:44:10;;;;;;;76.18;42.13;;;;;;;-2.14;72.74;99851.13;4970611;28;20061;-64
2022/11/18 05:46:36;;;;;;;74.65;41.85;;;;;;;-2.14;72.12;99848.50;4976896;28;20045;-63
2022/11/18 05:49:03;;;;;;;75.40;41.72;;;;;;;-1.97;71.82;99858.75;4977462;28;20053;-63
2022/11/18 05:51:29;;;;;;;73.55;40.08;;;;;;;-2.27;71.21;99858.09;4977573;28;20043;-64
2022/11/18 05:53:56;;;;;;;72.88;40.47;;;;;;;-2.30;70.95;99863.56;4978100;28;20049;-64
2022/11/18 05:56:37;;;;;;;64.60;36.45;;;;;;;-2.50;70.85;99865.69;4962674;28;20055;-64
2022/11/18 05:59:04;;;;;;;69.53;38.55;;;;;;;-2.59;70.65;99868.91;4959117;28;20054;-65
2022/11/18 06:01:40;;;;;;;66.75;35.67;;;;;;;-2.46;70.12;99877.69;4957300;28;20054;-66
2022/11/18 06:04:13;;;;;;;67.00;36.65;;;;;;;-2.42;70.64;99871.28;4956906;28;20043;-67
2022/11/18 06:06:41;;;;;;;70.50;39.72;;;;;;;-2.09;70.07;99880.59;4957101;28;20040;-65
2022/11/18 06:09:09;;;;;;;64.93;37.05;;;;;;;-2.25;69.42;99874.63;4956391;28;20361;-63
2022/11/18 06:11:42;;;;;;;63.15;34.97;;;;;;;-2.18;69.63;99875.91;4956368;28;20074;-64
2022/11/18 06:14:15;;;;;;;62.70;35.30;;;;;;;-2.06;68.32;99890.03;4956879;28;20047;-64
2022/11/18 06:16:48;;;;;;;63.70;35.22;;;;;;;-2.14;68.16;99894.00;4956984;28;20051;-63
2022/11/18 06:19:15;;;;;;;59.50;33.03;;;;;;;-2.20;68.17;99888.28;4957059;28;20051;-64
2022/11/18 06:21:43;;;;;;;59.20;34.63;;;;;;;-2.09;67.93;99891.09;4956806;28;20051;-63
2022/11/18 06:24:11;;;;;;;56.85;32.55;;;;;;;-2.27;68.77;99897.50;4956818;28;20053;-64
2022/11/18 06:26:38;;;;;;;57.65;34.30;;;;;;;-2.11;68.07;99901.69;4956860;28;20051;-66
2022/11/18 06:29:07;;;;;;;53.58;30.77;;;;;;;-1.96;67.45;99905.09;4958242;28;20051;-63
2022/11/18 06:31:33;;;;;;;52.42;30.40;;;;;;;-2.12;67.32;99902.66;4957017;28;20053;-64
2022/11/18 06:34:00;;;;;;;55.15;31.15;;;;;;;-1.89;67.74;99908.16;4956172;28;20043;-63
2022/11/18 06:36:26;;;;;;;51.30;31.05;;;;;;;-2.05;67.32;99910.13;4956603;28;20051;-64
2022/11/18 06:38:53;;;;;;;50.60;29.98;;;;;;;-2.46;66.71;99906.59;4955517;28;20120;-63
2022/11/18 06:41:19;;;;;;;48.03;28.27;;;;;;;-2.33;66.53;99909.28;4956871;28;20053;-63
2022/11/18 06:43:46;;;;;;;51.10;26.58;;;;;;;-2.47;65.78;99907.53;4956444;28;20054;-63
2022/11/18 06:49:00;;;;;;;49.20;27.35;;;;;;;-2.40;66.14;99916.69;4956151;28;20050;-62
2022/11/18 06:51:27;;;;;;;43.10;27.08;;;;;;;-2.29;66.07;99926.53;4953882;28;20053;-63
2022/11/18 06:53:54;;;;;;;48.58;28.02;;;;;;;-2.44;66.09;99932.72;4957087;28;20073;-63
2022/11/18 06:56:21;;;;;;;49.25;27.63;;;;;;;-2.28;65.95;99930.84;4969435;28;20054;-63
2022/11/18 06:58:53;;;;;;;45.38;26.48;;;;;;;-2.27;65.76;99929.88;4975114;28;20039;-63
2022/11/18 07:01:22;;;;;;;46.58;27.33;;;;;;;-2.18;65.91;99944.22;4974888;28;20055;-63
2022/11/18 07:03:49;;;;;;;48.08;27.67;;;;;;;-2.17;65.89;99944.13;4975552;28;20143;-66
2022/11/18 07:06:20;;;;;;;45.47;27.20;;;;;;;-2.51;66.35;99941.94;4974607;28;20051;-65
2022/11/18 07:08:46;;;;;;;47.35;28.00;;;;;;;-2.43;66.61;99955.44;4974212;28;20058;-66
2022/11/18 07:11:16;;;;;;;46.03;27.35;;;;;;;-2.46;66.46;99951.22;4974129;28;20054;-64
2022/11/18 07:13:42;;;;;;;50.40;27.63;;;;;;;-2.65;67.34;99951.53;4974238;28;20046;-63
2022/11/18 07:16:18;;;;;;;47.25;27.70;;;;;;;-2.60;67.29;99954.72;4966951;28;20103;-64
2022/11/18 07:18:46;;;;;;;53.40;27.08;;;;;;;-2.78;67.76;99960.25;4974447;28;20051;-63
2022/11/18 07:21:15;;;;;;;47.30;27.42;;;;;;;-2.82;68.29;99960.44;4974710;28;20513;-63
2022/11/18 07:23:42;;;;;;;47.70;28.73;;;;;;;-2.84;68.67;99962.31;4973475;28;20053;-63
2022/11/18 07:26:09;;;;;;;50.20;28.35;;;;;;;-2.89;68.73;99964.38;4974210;28;20043;-63
2022/11/18 07:28:36;;;;;;;54.22;30.55;;;;;;;-2.53;67.41;99967.47;4973952;28;20053;-65
2022/11/18 07:31:11;;;;;;;49.35;27.02;;;;;;;-3.07;66.81;99961.06;4973891;28;20389;-63
2022/11/18 07:33:39;;;;;;;48.40;27.85;;;;;;;-2.81;66.86;99969.16;4973484;28;20051;-63
2022/11/18 07:36:11;;;;;;;47.90;26.90;;;;;;;-2.75;66.12;99960.03;4972108;28;20406;-64
2022/11/18 07:38:38;;;;;;;50.35;27.25;;;;;;;-2.69;66.18;99972.81;4973770;28;20045;-64
2022/11/18 07:41:12;;;;;;;54.33;26.65;;;;;;;-2.88;65.15;99967.84;4973298;28;20157;-65
2022/11/18 07:43:39;;;;;;;47.25;26.63;;;;;;;-2.79;65.53;99975.16;4973625;28;20047;-66
2022/11/18 07:46:15;;;;;;;48.70;26.27;;;;;;;-2.82;65.16;99977.97;4973765;28;20053;-63
2022/11/18 07:48:44;;;;;;;48.15;27.15;;;;;;;-2.72;65.28;99975.63;4972966;28;20511;-63
2022/11/18 07:51:11;;;;;;;48.20;26.67;;;;;;;-2.85;65.24;99978.16;4968444;28;20058;-63
2022/11/18 07:53:38;;;;;;;47.97;27.38;;;;;;;-2.92;64.74;99975.06;4973456;28;20054;-62
2022/11/18 07:56:06;;;;;;;48.92;25.38;;;;;;;-2.95;64.31;99984.91;4961084;28;20047;-63
2022/11/18 07:58:34;;;;;;;44.80;25.20;;;;;;;-2.92;64.62;99992.59;4953884;28;20066;-64
2022/11/18 08:01:17;;;;;;;45.60;25.85;;;;;;;-2.86;64.19;99990.44;4952936;28;20054;-65
2022/11/18 08:03:45;;;;;;;46.08;25.58;;;;;;;-2.61;63.74;99995.03;4954716;28;20102;-65
2022/11/18 08:06:15;;;;;;;48.13;24.92;;;;;;;-2.88;64.26;99994.94;4954204;28;20055;-65
2022/11/18 08:08:42;;;;;;;50.80;25.52;;;;;;;-2.72;63.72;100001.88;4953807;28;20051;-66
2022/11/18 08:11:12;;;;;;;48.03;25.95;;;;;;;-2.86;63.53;99995.69;4955693;28;20408;-63
2022/11/18 08:13:45;;;;;;;46.42;25.15;;;;;;;-2.83;63.64;99995.50;4956455;28;20416;-64
2022/11/18 08:16:17;;;;;;;48.75;26.40;;;;;;;-2.69;63.34;99999.91;4949530;28;20523;-64
2022/11/18 08:18:44;;;;;;;46.78;25.70;;;;;;;-2.59;62.72;99990.53;4957346;28;20054;-66
2022/11/18 08:21:11;;;;;;;49.53;26.60;;;;;;;-2.67;62.56;99997.19;4957098;28;20047;-65
2022/11/18 08:23:38;;;;;;;46.40;25.00;;;;;;;-2.66;62.49;100006.75;4956950;28;20378;-64
2022/11/18 08:26:14;;;;;;;49.00;26.40;;;;;;;-2.56;62.14;100000.00;4957104;28;20456;-63
2022/11/18 08:28:42;;;;;;;46.17;26.65;;;;;;;-2.38;62.11;100008.53;4956957;28;20051;-64
2022/11/18 08:31:09;;;;;;;46.58;26.73;;;;;;;-2.36;62.01;100004.03;4955899;28;20051;-63
2022/11/18 08:33:36;;;;;;;45.63;25.25;;;;;;;-2.42;60.96;100000.00;4955373;28;20047;-64
2022/11/18 08:36:17;;;;;;;45.03;25.40;;;;;;;-2.61;61.61;100008.19;4956689;28;20216;-65
2022/11/18 08:38:43;;;;;;;46.25;24.70;;;;;;;-2.61;61.19;100020.47;4956386;28;20051;-64
2022/11/18 08:41:13;;;;;;;42.90;24.65;;;;;;;-2.68;61.51;100024.41;4956908;28;20472;-64
2022/11/18 08:43:39;;;;;;;38.42;22.77;;;;;;;-2.67;61.98;100026.09;4947744;28;20051;-63
2022/11/18 08:46:06;;;;;;;42.72;24.02;;;;;;;-2.59;61.81;100022.03;4955540;28;20050;-65
2022/11/18 08:48:32;;;;;;;42.53;24.20;;;;;;;-2.65;61.72;100029.44;4955933;28;20495;-63
2022/11/18 08:50:59;;;;;;;44.20;26.23;;;;;;;-2.43;61.12;100035.09;4956126;28;20047;-65
2022/11/18 08:53:26;;;;;;;44.40;24.00;;;;;;;-2.50;61.61;100036.41;4955797;28;20055;-64
2022/11/18 08:55:56;;;;;;;41.05;23.08;;;;;;;-2.81;61.94;100050.53;4966250;28;20046;-63
2022/11/18 08:58:24;;;;;;;42.92;23.17;;;;;;;-2.82;61.85;100046.22;4975002;28;20134;-64
2022/11/18 09:00:50;;;;;;;43.22;23.08;;;;;;;-2.58;61.46;100046.50;4973635;28;20058;-63
2022/11/18 09:03:17;;;;;;;41.92;23.25;;;;;;;-2.42;61.11;100049.06;4970305;28;20055;-64
2022/11/18 09:05:44;;;;;;;37.03;21.58;;;;;;;-2.74;61.33;100043.97;4975950;28;20050;-63
2022/11/18 09:08:11;;;;;;;39.10;23.23;;;;;;;-2.67;60.91;100053.19;4976165;28;20050;-63
2022/11/18 09:10:37;;;;;;;41.72;23.52;;;;;;;-2.60;60.71;100058.91;4975171;28;20043;-65
2022/11/18 09:13:04;;;;;;;46.95;23.48;;;;;;;-2.65;61.19;100056.56;4974338;28;20052;-64
2022/11/18 09:15:50;;;;;;;39.58;21.73;;;;;;;-2.55;61.75;100069.13;4974227;28;20458;-63
2022/11/18 09:18:17;;;;;;;36.05;21.75;;;;;;;-2.42;61.24;100083.22;4975113;28;20051;-63
2022/11/18 09:20:55;;;;;;;39.03;21.50;;;;;;;-2.61;61.16;100100.09;4975355;28;20517;-63
2022/11/18 09:23:22;;;;;;;40.95;21.27;;;;;;;-2.83;62.09;100092.63;4974258;28;20042;-63
2022/11/18 09:25:59;;;;;;;37.00;22.05;;;;;;;-2.63;60.91;100095.84;4974890;28;20046;-63
2022/11/18 09:28:25;;;;;;;34.72;20.98;;;;;;;-2.96;61.03;100094.28;4975753;28;20113;-63
2022/11/18 09:30:52;;;;;;;36.78;21.80;;;;;;;-2.90;61.54;100099.16;4974584;28;20046;-63
2022/11/18 09:33:18;;;;;;;36.42;20.75;;;;;;;-3.08;61.07;100108.94;4974382;28;20061;-65
2022/11/18 09:35:46;;;;;;;39.65;22.27;;;;;;;-2.82;61.13;100115.31;4972214;28;20051;-62
2022/11/18 09:38:12;;;;;;;37.45;21.73;;;;;;;-2.98;61.96;100122.38;4975393;28;20043;-63
2022/11/18 09:41:09;;;;;;;35.35;21.45;;;;;;;-2.84;61.60;100100.59;4973979;28;20042;-63
2022/11/18 09:43:48;;;;;;;38.80;21.15;;;;;;;-2.93;61.80;100109.84;4973838;28;20050;-65
2022/11/18 09:46:26;;;;;;;38.30;21.88;;;;;;;-2.60;61.48;100114.06;4975200;28;20051;-64
2022/11/18 09:49:11;;;;;;;37.28;20.08;;;;;;;-2.75;61.90;100114.94;4973776;28;20046;-64
2022/11/18 09:51:44;;;;;;;34.95;20.02;;;;;;;-2.64;61.04;100117.81;4974332;28;20043;-63
2022/11/18 09:54:16;;;;;;;39.97;19.20;;;;;;;-2.81;61.48;100119.63;4974387;28;20403;-63
2022/11/18 09:56:43;;;;;;;34.80;19.55;;;;;;;-2.66;61.54;100124.91;4973769;28;20482;-63
2022/11/18 09:59:13;;;;;;;34.72;18.50;;;;;;;-2.67;61.13;100134.56;4974358;28;20089;-64
2022/11/18 10:01:41;;;;;;;29.40;16.75;;;;;;;-2.87;61.87;100134.88;4974350;28;20452;-64
2022/11/18 10:04:14;;;;;;;32.10;18.05;;;;;;;-2.72;61.70;100133.16;4973920;28;20051;-65
2022/11/18 10:06:41;;;;;;;27.50;16.05;;;;;;;-2.64;61.96;100136.19;4973394;28;20046;-65
2022/11/18 10:09:29;;;;;;;24.65;14.43;;;;;;;-2.87;61.61;100140.13;4972741;28;20125;-63
2022/11/18 10:12:07;;;;;;;28.83;13.88;;;;;;;-2.95;61.61;100151.09;4973674;28;20054;-63
2022/11/18 10:15:01;;;;;;;26.95;14.63;;;;;;;-2.96;61.99;100148.53;4973291;28;20047;-65
2022/11/18 10:17:40;;;;;;;25.88;13.77;;;;;;;-2.95;61.95;100145.84;4971916;28;20054;-63
2022/11/18 10:20:21;;;;;;;26.17;13.68;;;;;;;-2.67;61.28;100147.72;4973374;28;20057;-63
2022/11/18 10:22:53;;;;;;;;;;;;;;;-2.73;61.80;100153.31;4974079;28;20058;-64
2022/11/18 10:25:20;;;;;;;16.98;10.23;;;;;;;-3.34;62.23;100148.94;4972866;28;19922;-63
2022/11/18 10:27:48;;;;;;;22.98;12.30;;;;;;;-2.84;62.02;100146.06;4974353;28;20047;-63
2022/11/18 10:30:20;;;;;;;21.08;11.50;;;;;;;-2.64;61.11;100141.44;4973984;28;20057;-65
2022/11/18 10:33:16;;;;;;;19.35;12.88;;;;;;;-2.84;61.65;100156.56;4972978;28;20065;-66
2022/11/18 10:35:42;;;;;;;26.83;11.55;;;;;;;-2.82;61.53;100157.31;4973529;28;20476;-63
2022/11/18 10:38:12;;;;;;;20.98;12.23;;;;;;;-2.86;61.60;100155.81;4971530;28;20043;-63
2022/11/18 10:40:59;;;;;;;18.45;11.70;;;;;;;-2.69;61.16;100156.59;4973130;28;20050;-65
2022/11/18 10:43:49;;;;;;;20.40;10.70;;;;;;;-2.86;61.63;100163.69;4972883;28;20057;-65
2022/11/18 10:46:27;;;;;;;18.30;10.98;;;;;;;-3.16;62.08;100160.19;4972291;28;20054;-65
2022/11/18 10:49:11;;;;;;;19.08;11.65;;;;;;;-2.89;61.65;100157.75;4971456;28;20047;-64
2022/11/18 10:52:13;;;;;;;18.38;10.63;;;;;;;-2.81;61.70;100166.03;4970557;28;20070;-64
2022/11/18 10:54:41;;;;;;;18.70;11.57;;;;;;;-2.83;61.14;100167.91;4971678;28;20050;-66
2022/11/18 10:57:22;;;;;;;18.15;10.57;;;;;;;-2.85;61.78;100172.41;4953940;28;20500;-66
2022/11/18 10:59:55;;;;;;;;;;;;;;;-2.77;61.28;100170.19;4953869;28;20051;-66
2022/11/18 11:02:31;;;;;;;20.98;10.60;;;;;;;-2.79;61.33;100168.56;4952753;28;20017;-65
2022/11/18 11:05:01;;;;;;;18.13;10.80;;;;;;;-2.54;60.30;100173.25;4950124;28;20051;-65
2022/11/18 11:07:31;;;;;;;20.00;10.88;;;;;;;-2.84;60.56;100177.56;4953579;28;20065;-65
2022/11/18 11:10:22;;;;;;;19.92;9.43;;;;;;;-3.20;60.54;100179.66;4952858;28;20106;-67
2022/11/18 11:12:58;;;;;;;16.98;9.70;;;;;;;-3.00;61.10;100200.34;4951445;28;20412;-65
2022/11/18 11:15:47;;;;;;;18.58;10.27;;;;;;;-2.92;61.07;100195.53;4952218;28;20050;-64
2022/11/18 11:21:12;;;;;;;16.08;9.57;;;;;;;-3.04;61.30;100177.84;4942368;28;20535;-65
2022/11/18 11:23:40;;;;;;;15.98;10.23;;;;;;;-3.04;61.46;100185.72;4952768;28;20047;-64
2022/11/18 11:26:09;;;;;;;19.25;10.70;;;;;;;-2.76;61.16;100195.47;4953042;28;20043;-66
2022/11/18 11:29:09;;;;;;;18.35;11.55;;;;;;;-2.49;60.56;100187.78;4952631;28;20051;-66
2022/11/18 11:31:45;;;;;;;21.45;12.05;;;;;;;-2.75;60.37;100185.81;4953164;28;20055;-64
2022/11/18 11:34:41;;;;;;;19.80;11.30;;;;;;;-2.68;60.95;100193.28;4948160;28;20058;-64
2022/11/18 11:37:08;;;;;;;23.13;11.40;;;;;;;-2.65;60.50;100189.63;4952690;28;20039;-65
2022/11/18 11:40:10;;;;;;;20.13;10.95;;;;;;;-2.30;59.66;100187.56;4952672;28;20538;-65
2022/11/18 11:42:42;;;;;;;19.77;11.40;;;;;;;-2.40;59.67;100187.28;4943312;28;20051;-66
2022/11/18 11:45:27;;;;;;;18.95;10.88;;;;;;;-2.42;60.01;100183.88;4952382;28;20054;-65
2022/11/18 11:48:02;;;;;;;20.83;12.20;;;;;;;-2.29;59.80;100196.31;4955905;28;20054;-65
2022/11/18 11:50:54;;;;;;;22.00;11.63;;;;;;;-2.15;59.59;100196.31;4956538;28;20056;-65
2022/11/18 11:54:03;;;;;;;20.48;11.93;;;;;;;-2.39;59.16;100188.94;4955975;28;20081;-65